Time;durP1;ratioP1;P1;durP2;ratioP2;P2;SDS_P1;SDS_P2;PMS_P1;PMS_P2;Temp;Humidity;BMP_temperature;BMP_pressure;BME280_temperature;BME280_humidity;BME280_pressure;Samples;Min_cycle;Max_cycle;Signal;HPM_P1;HPM_P2
2021/05/03 00:01:49;;;;;;;1.05;0.73;;;13.90;68.60;;;;;;5094206;28;20085;-46
2021/05/03 00:04:15;;;;;;;0.80;0.80;;;14.00;68.70;;;;;;5094992;28;20048;-46
2021/05/03 00:06:41;;;;;;;1.20;0.70;;;14.00;68.70;;;;;;5094343;28;20424;-44
2021/05/03 00:09:07;;;;;;;0.90;0.70;;;13.90;68.70;;;;;;5094180;28;20055;-44
2021/05/03 00:11:33;;;;;;;0.80;0.80;;;14.00;68.70;;;;;;5094055;28;20048;-47
2021/05/03 00:13:59;;;;;;;0.82;0.80;;;13.90;68.70;;;;;;5094516;28;20389;-44
2021/05/03 00:16:25;;;;;;;0.70;0.70;;;13.90;68.70;;;;;;5094496;28;20043;-43
2021/05/03 00:18:51;;;;;;;0.60;0.55;;;13.90;68.70;;;;;;5094200;28;20433;-43
2021/05/03 00:21:17;;;;;;;0.85;0.70;;;13.90;68.70;;;;;;5094155;28;20058;-43
2021/05/03 00:23:43;;;;;;;0.63;0.63;;;13.90;68.70;;;;;;5093286;28;20044;-47
2021/05/03 00:26:11;;;;;;;0.90;0.70;;;14.00;68.80;;;;;;5094532;28;20127;-43
2021/05/03 00:28:38;;;;;;;1.08;0.90;;;13.90;68.70;;;;;;5093969;28;20044;-45
2021/05/03 00:31:04;;;;;;;0.80;0.80;;;13.90;68.70;;;;;;5093789;28;20044;-41
2021/05/03 00:33:30;;;;;;;0.70;0.70;;;13.90;68.70;;;;;;5094017;28;20075;-43
2021/05/03 00:35:55;;;;;;;0.68;0.65;;;13.90;68.70;;;;;;5094004;28;20076;-46
2021/05/03 00:38:21;;;;;;;0.95;0.95;;;13.90;68.70;;;;;;5093555;28;20048;-45
2021/05/03 00:40:47;;;;;;;1.10;0.90;;;13.90;68.70;;;;;;5093808;28;20103;-43
2021/05/03 00:43:18;;;;;;;0.77;0.70;;;13.90;68.70;;;;;;5091956;28;20040;-43
2021/05/03 00:45:44;;;;;;;0.80;0.80;;;13.90;68.70;;;;;;5094270;28;20104;-44
2021/05/03 00:48:10;;;;;;;0.63;0.63;;;13.90;68.80;;;;;;5093932;28;20076;-42
2021/05/03 00:50:37;;;;;;;0.95;0.90;;;13.90;68.70;;;;;;5093551;28;20492;-44
2021/05/03 00:53:04;;;;;;;0.57;0.57;;;13.90;68.70;;;;;;5092806;28;20059;-41
2021/05/03 00:55:30;;;;;;;0.73;0.73;;;13.90;68.70;;;;;;5093372;28;20492;-44
2021/05/03 00:57:56;;;;;;;0.63;0.63;;;13.90;68.70;;;;;;5093618;28;20090;-42
2021/05/03 01:00:25;;;;;;;0.80;0.80;;;13.90;68.70;;;;;;5093522;28;20063;-43
2021/05/03 01:02:50;;;;;;;0.70;0.70;;;13.90;68.70;;;;;;5093553;28;20056;-41
2021/05/03 01:05:19;;;;;;;1.00;0.88;;;13.90;68.80;;;;;;5092941;28;20062;-43
2021/05/03 01:07:45;;;;;;;1.20;0.98;;;13.90;68.70;;;;;;5093252;28;20052;-49
2021/05/03 01:10:11;;;;;;;0.70;0.70;;;13.90;68.70;;;;;;5092362;28;20047;-43
2021/05/03 01:12:37;;;;;;;1.00;0.90;;;13.90;68.80;;;;;;5093432;28;20067;-49
2021/05/03 01:15:09;;;;;;;0.90;0.90;;;13.90;68.80;;;;;;5093015;28;20063;-48
2021/05/03 01:17:35;;;;;;;0.82;0.82;;;13.90;68.70;;;;;;5093407;28;20059;-47
2021/05/03 01:20:13;;;;;;;1.00;0.90;;;13.90;68.70;;;;;;5093026;28;20069;-47
2021/05/03 01:22:40;;;;;;;0.68;0.68;;;13.90;68.70;;;;;;5092841;28;20044;-43
2021/05/03 01:25:08;;;;;;;0.90;0.90;;;13.80;68.70;;;;;;5092913;28;20114;-43
2021/05/03 01:27:34;;;;;;;0.70;0.70;;;13.90;68.70;;;;;;5113602;27;20049;-43
2021/05/03 01:30:08;;;;;;;0.73;0.73;;;13.80;68.70;;;;;;5084342;28;20059;-41
2021/05/03 01:32:34;;;;;;;1.15;0.90;;;13.90;68.80;;;;;;5090453;28;20048;-40
2021/05/03 01:35:00;;;;;;;0.80;0.80;;;13.80;68.70;;;;;;5092818;28;20058;-43
2021/05/03 01:37:26;;;;;;;0.90;0.77;;;13.80;68.70;;;;;;5092671;28;20047;-41
2021/05/03 01:39:52;;;;;;;1.10;0.77;;;13.90;68.80;;;;;;5093131;28;20146;-42
2021/05/03 01:42:18;;;;;;;0.95;0.68;;;13.80;68.70;;;;;;5092500;28;20040;-41
2021/05/03 01:44:45;;;;;;;0.70;0.70;;;13.80;68.70;;;;;;5093069;28;20396;-44
2021/05/03 01:47:11;;;;;;;0.82;0.70;;;13.80;68.80;;;;;;5092633;28;20052;-42
2021/05/03 01:49:39;;;;;;;1.92;0.98;;;13.80;68.80;;;;;;5092186;28;20515;-44
2021/05/03 01:52:05;;;;;;;0.85;0.70;;;13.80;68.80;;;;;;5093108;28;20048;-45
2021/05/03 01:54:32;;;;;;;0.70;0.60;;;13.80;68.80;;;;;;5092862;28;20056;-43
2021/05/03 01:56:57;;;;;;;0.85;0.77;;;13.80;68.80;;;;;;5092082;28;20500;-42
2021/05/03 01:59:30;;;;;;;1.55;0.77;;;13.90;68.80;;;;;;5092514;28;20051;-41
2021/05/03 02:01:56;;;;;;;0.80;0.80;;;13.80;68.80;;;;;;5092663;28;20056;-42
2021/05/03 02:04:22;;;;;;;0.80;0.80;;;13.80;68.80;;;;;;5092631;28;20056;-43
2021/05/03 02:06:48;;;;;;;0.90;0.88;;;13.80;68.80;;;;;;5092826;28;20055;-46
2021/05/03 02:09:14;;;;;;;0.80;0.80;;;13.80;68.80;;;;;;5092217;28;20044;-42
2021/05/03 02:11:39;;;;;;;0.85;0.80;;;13.80;68.80;;;;;;5092406;28;20494;-44
2021/05/03 02:14:06;;;;;;;0.70;0.70;;;13.80;68.80;;;;;;5092355;28;20044;-44
2021/05/03 02:16:32;;;;;;;0.60;0.60;;;13.80;68.80;;;;;;5092552;28;20052;-44
2021/05/03 02:18:58;;;;;;;0.63;0.60;;;13.80;68.80;;;;;;5080417;28;20158;-45
2021/05/03 02:21:24;;;;;;;0.73;0.70;;;13.80;68.80;;;;;;5093466;28;20044;-43
2021/05/03 02:23:49;;;;;;;1.13;0.90;;;13.80;68.80;;;;;;5096602;28;20055;-44
2021/05/03 02:26:16;;;;;;;1.02;0.80;;;13.80;68.80;;;;;;5096775;28;20529;-45
2021/05/03 02:28:42;;;;;;;1.05;0.90;;;13.80;68.80;;;;;;5095524;28;20047;-43
2021/05/03 02:31:08;;;;;;;0.70;0.70;;;13.80;68.80;;;;;;5096207;28;20048;-43
2021/05/03 02:33:34;;;;;;;0.80;0.80;;;13.80;68.80;;;;;;5096191;28;20039;-44
2021/05/03 02:36:00;;;;;;;0.93;0.93;;;13.80;68.80;;;;;;5096217;28;20048;-44
2021/05/03 02:38:28;;;;;;;1.00;0.70;;;13.80;68.80;;;;;;5096111;28;20101;-44
2021/05/03 02:40:54;;;;;;;1.00;0.80;;;13.80;68.90;;;;;;5096500;28;20040;-41
2021/05/03 02:43:19;;;;;;;0.63;0.63;;;13.80;68.80;;;;;;5095488;28;20059;-41
2021/05/03 02:45:46;;;;;;;1.52;0.82;;;13.80;68.90;;;;;;5096324;28;20048;-41
2021/05/03 02:48:12;;;;;;;0.80;0.80;;;13.90;68.90;;;;;;5094094;28;20059;-43
2021/05/03 02:50:38;;;;;;;1.00;0.90;;;13.80;68.80;;;;;;5095969;28;20040;-45
2021/05/03 02:53:04;;;;;;;0.82;0.80;;;13.80;68.80;;;;;;5095837;28;20051;-44
2021/05/03 02:55:30;;;;;;;1.52;0.75;;;13.80;68.80;;;;;;5096170;28;20043;-42
2021/05/03 02:57:56;;;;;;;0.77;0.77;;;13.80;68.90;;;;;;5095648;28;20089;-44
2021/05/03 03:00:27;;;;;;;0.80;0.80;;;13.80;68.90;;;;;;5095216;28;20060;-41
2021/05/03 03:02:53;;;;;;;0.85;0.85;;;13.80;68.90;;;;;;5095454;28;20488;-42
2021/05/03 03:05:19;;;;;;;0.70;0.70;;;13.80;68.90;;;;;;5095858;28;20048;-44
2021/05/03 03:07:44;;;;;;;0.98;0.85;;;13.70;68.80;;;;;;5095792;28;20382;-41
2021/05/03 03:10:11;;;;;;;0.65;0.65;;;13.80;68.90;;;;;;5095991;28;20135;-43
2021/05/03 03:12:37;;;;;;;0.98;0.88;;;13.80;68.90;;;;;;5095746;28;20059;-45
2021/05/03 03:15:04;;;;;;;0.60;0.60;;;13.80;68.90;;;;;;5094665;28;20036;-41
2021/05/03 03:17:30;;;;;;;1.00;0.88;;;13.80;68.90;;;;;;5095900;28;20388;-43
2021/05/03 03:19:55;;;;;;;1.05;0.80;;;13.80;68.90;;;;;;5095101;28;20105;-44
2021/05/03 03:22:21;;;;;;;0.70;0.70;;;13.80;68.90;;;;;;5095487;28;20044;-43
2021/05/03 03:24:47;;;;;;;0.80;0.80;;;13.80;68.80;;;;;;5095158;28;20477;-46
2021/05/03 03:27:12;;;;;;;0.65;0.65;;;13.80;69.60;;;;;;5095594;28;20055;-46
2021/05/03 03:29:38;;;;;;;0.95;0.90;;;13.80;68.90;;;;;;5094933;28;20500;-46
2021/05/03 03:32:04;;;;;;;0.65;0.65;;;13.70;68.80;;;;;;5094967;28;20052;-44
2021/05/03 03:34:30;;;;;;;0.82;0.82;;;13.70;68.90;;;;;;5094257;28;20389;-48
2021/05/03 03:36:56;;;;;;;0.77;0.77;;;13.70;68.80;;;;;;5095151;28;20067;-47
2021/05/03 03:39:21;;;;;;;0.77;0.77;;;13.70;68.80;;;;;;5095061;28;20040;-47
2021/05/03 03:41:47;;;;;;;0.85;0.80;;;13.70;68.90;;;;;;5095149;28;20397;-45
2021/05/03 03:44:13;;;;;;;1.02;0.95;;;13.70;68.90;;;;;;5093374;28;20100;-42
2021/05/03 03:46:38;;;;;;;0.80;0.80;;;13.70;68.90;;;;;;5094257;28;20480;-45
2021/05/03 03:49:04;;;;;;;0.80;0.80;;;13.80;69.00;;;;;;5094811;28;20051;-42
2021/05/03 03:51:30;;;;;;;0.80;0.80;;;13.70;68.90;;;;;;5094540;28;20044;-47
2021/05/03 03:53:56;;;;;;;0.95;0.60;;;13.70;68.90;;;;;;5094462;28;20044;-47
2021/05/03 03:56:22;;;;;;;0.90;0.82;;;13.70;69.60;;;;;;5094686;28;20126;-43
2021/05/03 03:58:49;;;;;;;0.70;0.70;;;13.70;68.90;;;;;;5094909;28;20062;-44
2021/05/03 04:01:15;;;;;;;0.90;0.90;;;13.70;68.90;;;;;;5093612;28;20500;-48
2021/05/03 04:03:50;;;;;;;0.90;0.85;;;13.70;68.90;;;;;;5094022;28;20426;-41
2021/05/03 04:06:53;;;;;;;0.95;0.85;;;13.70;68.90;;;;;;5093433;28;20058;-49
2021/05/03 04:09:13;;;;;;;0.70;0.70;;;13.70;68.90;;;;;;5089590;28;20044;-45
2021/05/03 04:12:00;;;;;;;0.85;0.80;;;13.70;68.90;;;;;;5094442;28;20059;-42
2021/05/03 04:27:42;;;;;;;1.08;0.98;;;13.70;68.90;;;;;;5093157;28;20047;-42
2021/05/03 04:30:12;;;;;;;1.10;0.80;;;13.70;69.00;;;;;;5093386;28;20059;-43
2021/05/03 04:32:39;;;;;;;0.98;0.98;;;13.70;69.00;;;;;;5093021;28;20123;-43
2021/05/03 04:35:05;;;;;;;1.10;1.00;;;13.70;69.00;;;;;;5093311;28;20097;-42
2021/05/03 04:37:31;;;;;;;0.70;0.70;;;13.70;69.00;;;;;;5092110;28;20096;-42
2021/05/03 04:39:57;;;;;;;0.75;0.73;;;13.70;69.00;;;;;;5094078;28;20511;-46
2021/05/03 04:42:23;;;;;;;0.73;0.73;;;13.70;69.00;;;;;;5094082;28;20062;-46
2021/05/03 04:44:48;;;;;;;0.80;0.80;;;13.70;69.00;;;;;;5092310;28;20047;-42
2021/05/03 04:47:14;;;;;;;1.10;1.00;;;13.70;69.00;;;;;;5093859;28;20113;-45
2021/05/03 04:49:40;;;;;;;1.00;1.00;;;13.70;69.00;;;;;;5092899;28;20123;-43
2021/05/03 04:52:06;;;;;;;0.75;0.75;;;13.70;69.00;;;;;;5094037;28;20048;-44
2021/05/03 04:54:33;;;;;;;0.73;0.73;;;13.70;69.00;;;;;;5093819;28;20044;-45
2021/05/03 04:56:59;;;;;;;1.00;0.90;;;13.70;69.00;;;;;;5093479;28;20076;-43
2021/05/03 04:59:24;;;;;;;0.75;0.75;;;13.70;69.00;;;;;;5093420;28;20044;-42
2021/05/03 05:01:50;;;;;;;0.77;0.77;;;13.70;69.00;;;;;;5093900;28;20063;-46
2021/05/03 05:04:16;;;;;;;0.90;0.90;;;13.70;69.00;;;;;;5092888;28;20044;-42
2021/05/03 05:06:41;;;;;;;1.02;1.00;;;13.70;69.10;;;;;;5093116;28;20503;-42
2021/05/03 05:09:08;;;;;;;0.82;0.82;;;13.80;69.10;;;;;;5091539;28;20052;-44
2021/05/03 05:11:34;;;;;;;1.20;1.10;;;13.70;69.00;;;;;;5093049;28;20168;-42
2021/05/03 05:14:00;;;;;;;1.05;0.95;;;13.70;69.00;;;;;;5093491;28;20066;-44
2021/05/03 05:16:26;;;;;;;0.80;0.80;;;13.70;69.00;;;;;;5092868;28;20480;-47
2021/05/03 05:18:52;;;;;;;0.77;0.77;;;13.70;69.10;;;;;;5092282;28;20181;-44
2021/05/03 05:21:18;;;;;;;0.93;0.82;;;13.70;69.00;;;;;;5092123;28;20044;-43
2021/05/03 05:23:44;;;;;;;0.73;0.73;;;13.70;69.00;;;;;;5092464;28;20044;-45
2021/05/03 05:26:10;;;;;;;0.85;0.77;;;13.80;69.20;;;;;;5092911;28;20078;-45
2021/05/03 05:28:36;;;;;;;0.77;0.70;;;13.70;69.10;;;;;;5092314;28;20064;-43
2021/05/03 05:31:03;;;;;;;0.73;0.73;;;13.60;69.20;;;;;;5077069;28;20052;-42
2021/05/03 05:33:29;;;;;;;1.45;0.90;;;13.70;69.20;;;;;;5093100;28;20131;-44
2021/05/03 05:35:55;;;;;;;1.20;1.00;;;13.70;69.20;;;;;;5092823;28;20115;-43
2021/05/03 05:38:21;;;;;;;1.10;0.95;;;13.70;69.20;;;;;;5093081;28;20154;-43
2021/05/03 05:40:47;;;;;;;0.85;0.80;;;13.70;69.30;;;;;;5092904;28;20127;-42
2021/05/03 05:43:14;;;;;;;1.00;0.90;;;13.70;69.30;;;;;;5092392;28;20044;-44
2021/05/03 05:45:39;;;;;;;0.60;0.60;;;13.70;69.30;;;;;;5092915;28;20040;-43
2021/05/03 05:48:06;;;;;;;1.00;0.90;;;13.80;69.40;;;;;;5092361;28;20048;-39
2021/05/03 05:50:32;;;;;;;0.98;0.82;;;13.70;69.30;;;;;;5092031;28;20147;-44
2021/05/03 05:52:58;;;;;;;1.27;0.85;;;13.70;69.40;;;;;;5092563;28;20039;-46
2021/05/03 05:55:24;;;;;;;0.77;0.77;;;13.60;69.30;;;;;;5092470;28;20074;-49
2021/05/03 05:57:49;;;;;;;0.90;0.90;;;13.70;69.40;;;;;;5092601;28;20109;-42
2021/05/03 06:00:16;;;;;;;0.80;0.80;;;13.70;69.40;;;;;;5091952;28;20052;-43
2021/05/03 06:02:41;;;;;;;1.20;1.00;;;13.60;69.40;;;;;;5092750;28;20055;-42
2021/05/03 06:05:08;;;;;;;1.10;1.00;;;13.60;69.40;;;;;;5092594;28;20086;-44
2021/05/03 06:07:34;;;;;;;1.00;0.90;;;13.70;69.50;;;;;;5092472;28;20048;-42
2021/05/03 06:09:59;;;;;;;1.00;0.90;;;13.60;69.50;;;;;;5106676;28;20496;-43
2021/05/03 06:12:25;;;;;;;0.88;0.70;;;13.60;69.60;;;;;;5112879;28;20043;-40
2021/05/03 06:14:53;;;;;;;0.73;0.60;;;13.60;69.60;;;;;;5092354;28;20105;-40
2021/05/03 06:17:19;;;;;;;1.05;0.98;;;13.70;69.70;;;;;;5092705;28;20512;-41
2021/05/03 06:19:45;;;;;;;0.70;0.70;;;13.60;69.80;;;;;;5093039;28;20055;-45
2021/05/03 06:22:11;;;;;;;1.00;0.90;;;13.50;69.70;;;;;;5091740;28;20044;-44
2021/05/03 06:24:37;;;;;;;0.80;0.80;;;13.70;69.90;;;;;;5092629;28;20173;-44
2021/05/03 06:27:03;;;;;;;0.82;0.82;;;13.70;70.00;;;;;;5092055;28;20082;-45
2021/05/03 06:29:29;;;;;;;0.80;0.80;;;13.60;70.00;;;;;;5092698;28;20059;-43
2021/05/03 06:31:57;;;;;;;0.98;0.88;;;13.60;70.10;;;;;;5092453;28;20052;-41
2021/05/03 06:34:28;;;;;;;1.38;1.05;;;13.60;70.10;;;;;;5092501;28;20048;-48
2021/05/03 06:36:53;;;;;;;1.00;0.90;;;13.60;70.20;;;;;;5092107;28;20048;-43
2021/05/03 06:39:19;;;;;;;0.70;0.70;;;13.60;70.20;;;;;;5091919;28;20050;-45
2021/05/03 06:41:45;;;;;;;0.80;0.80;;;13.60;70.20;;;;;;5092016;28;20048;-41
2021/05/03 06:44:11;;;;;;;0.90;0.70;;;13.60;70.20;;;;;;5092468;28;20083;-44
2021/05/03 06:46:38;;;;;;;1.00;0.93;;;13.60;70.30;;;;;;5092378;28;20055;-51
2021/05/03 06:49:04;;;;;;;0.80;0.80;;;13.60;70.40;;;;;;5092017;28;20408;-51
2021/05/03 06:51:30;;;;;;;0.82;0.82;;;13.60;70.40;;;;;;5092466;28;20052;-53
2021/05/03 06:53:56;;;;;;;1.00;0.90;;;13.50;70.40;;;;;;5092061;28;20043;-53
2021/05/03 06:56:23;;;;;;;1.05;0.73;;;13.60;70.50;;;;;;5091640;28;20055;-51
2021/05/03 06:58:49;;;;;;;0.90;0.80;;;13.60;70.50;;;;;;5091756;28;20087;-52
2021/05/03 07:01:15;;;;;;;1.25;0.88;;;13.60;70.50;;;;;;5091710;28;20149;-41
2021/05/03 07:03:43;;;;;;;1.00;1.00;;;13.60;70.60;;;;;;5092159;28;20062;-43
2021/05/03 07:06:12;;;;;;;1.45;0.82;;;13.60;70.50;;;;;;5092069;28;20044;-44
2021/05/03 07:08:37;;;;;;;2.85;2.10;;;13.60;70.50;;;;;;5093025;28;20047;-45
2021/05/03 07:11:09;;;;;;;2.78;2.00;;;13.40;70.00;;;;;;5094618;28;20040;-46
2021/05/03 07:13:38;;;;;;;2.47;1.92;;;13.40;70.10;;;;;;5095477;28;20071;-50
2021/05/03 07:16:04;;;;;;;3.13;1.90;;;13.30;70.20;;;;;;5095816;28;20151;-43
2021/05/03 07:18:30;;;;;;;7.70;2.83;;;13.30;69.90;;;;;;5095511;28;20051;-46
2021/05/03 07:20:56;;;;;;;7.72;2.83;;;13.30;69.70;;;;;;5095293;28;20044;-45
2021/05/03 07:23:21;;;;;;;4.78;2.50;;;13.30;69.80;;;;;;5095180;28;20215;-46
2021/05/03 07:25:48;;;;;;;4.53;2.72;;;13.30;69.80;;;;;;5095265;28;20104;-44
2021/05/03 07:28:14;;;;;;;4.93;2.50;;;13.30;69.90;;;;;;5095619;28;20219;-42
2021/05/03 07:30:40;;;;;;;3.85;2.30;;;13.30;69.90;;;;;;5098533;28;20125;-41
2021/05/03 07:33:06;;;;;;;4.93;2.75;;;13.30;70.00;;;;;;5099661;28;20052;-41
2021/05/03 07:35:32;;;;;;;2.42;2.22;;;13.30;70.00;;;;;;5098672;28;20066;-42
2021/05/03 07:37:57;;;;;;;4.13;2.30;;;13.40;70.20;;;;;;5095533;28;20068;-40
2021/05/03 07:40:23;;;;;;;2.42;2.20;;;13.40;70.30;;;;;;5095169;28;20559;-41
2021/05/03 07:42:49;;;;;;;3.28;2.63;;;13.30;70.90;;;;;;5094585;28;20552;-40
2021/05/03 07:45:16;;;;;;;5.63;2.53;;;13.40;70.30;;;;;;5095336;28;20048;-40
2021/05/03 07:47:42;;;;;;;3.10;2.55;;;13.40;70.40;;;;;;5095144;28;20086;-41
2021/05/03 07:50:09;;;;;;;3.35;2.40;;;13.40;70.40;;;;;;5094876;28;20044;-41
2021/05/03 07:52:35;;;;;;;2.83;2.30;;;13.40;70.40;;;;;;5094425;28;20044;-41
2021/05/03 07:55:00;;;;;;;7.05;5.80;;;13.40;70.40;;;;;;5093989;28;20085;-43
2021/05/03 07:57:27;;;;;;;5.32;4.57;;;13.50;70.40;;;;;;5093411;28;20039;-43
2021/05/03 07:59:53;;;;;;;5.60;3.95;;;13.30;70.10;;;;;;5094356;28;20060;-42
2021/05/03 08:02:19;;;;;;;4.45;3.55;;;13.30;70.30;;;;;;5094346;28;20058;-42
2021/05/03 08:04:45;;;;;;;5.00;3.47;;;13.30;70.40;;;;;;5094253;28;20087;-42
2021/05/03 08:07:10;;;;;;;5.30;4.05;;;13.30;70.40;;;;;;5094697;28;20044;-41
2021/05/03 08:09:37;;;;;;;5.03;4.10;;;13.30;70.50;;;;;;5094007;28;20056;-42
2021/05/03 08:12:04;;;;;;;6.68;4.30;;;13.30;70.50;;;;;;5094403;28;20131;-42
2021/05/03 08:14:31;;;;;;;5.78;3.58;;;13.30;70.50;;;;;;5093781;28;20505;-42
2021/05/03 08:17:04;;;;;;;4.90;3.60;;;13.30;71.20;;;;;;5094611;28;20074;-41
2021/05/03 08:19:30;;;;;;;5.18;3.67;;;13.30;70.60;;;;;;5093877;28;20047;-43
2021/05/03 08:21:58;;;;;;;4.03;3.63;;;13.30;70.60;;;;;;5094350;28;20048;-42
2021/05/03 08:24:24;;;;;;;6.80;4.03;;;13.30;70.70;;;;;;5093917;28;20049;-42
2021/05/03 08:26:49;;;;;;;6.30;3.72;;;13.30;70.80;;;;;;5093895;28;20050;-42
2021/05/03 08:29:15;;;;;;;4.72;3.88;;;13.30;70.80;;;;;;5094307;28;20113;-41
2021/05/03 08:31:41;;;;;;;4.18;3.58;;;13.30;70.80;;;;;;5086969;28;20173;-40
2021/05/03 08:34:07;;;;;;;5.05;3.47;;;13.30;70.90;;;;;;5089983;28;20443;-39
2021/05/03 08:36:35;;;;;;;5.47;3.83;;;13.30;70.90;;;;;;5093489;28;20055;-46
2021/05/03 08:39:04;;;;;;;5.55;3.58;;;13.30;70.90;;;;;;5093035;28;20040;-49
2021/05/03 08:41:30;;;;;;;5.15;3.90;;;13.30;71.00;;;;;;5092620;28;20085;-39
2021/05/03 08:43:56;;;;;;;5.75;3.95;;;13.40;71.00;;;;;;5092562;28;20064;-39
2021/05/03 08:46:27;;;;;;;4.82;3.90;;;13.30;71.00;;;;;;5093400;28;20040;-40
2021/05/03 08:54:02;;;;;;;4.90;3.90;;;13.30;71.10;;;;;;5092603;28;20115;-41
2021/05/03 08:56:28;;;;;;;4.28;3.83;;;13.30;71.10;;;;;;5093006;28;20040;-43
2021/05/03 08:58:54;;;;;;;5.10;4.18;;;13.30;71.10;;;;;;5092896;28;20101;-41
2021/05/03 09:01:22;;;;;;;5.18;3.95;;;13.40;71.90;;;;;;5092571;28;20063;-43
2021/05/03 09:03:51;;;;;;;5.07;3.60;;;13.40;71.30;;;;;;5092717;28;20052;-41
2021/05/03 09:06:17;;;;;;;4.70;3.60;;;13.40;71.30;;;;;;5093185;28;20044;-42
2021/05/03 09:08:43;;;;;;;5.60;4.30;;;13.40;71.40;;;;;;5092740;28;20048;-42
2021/05/03 09:11:14;;;;;;;5.00;3.78;;;13.40;71.40;;;;;;5092394;28;20055;-43
2021/05/03 09:13:41;;;;;;;4.50;3.70;;;13.40;71.50;;;;;;5092139;28;20048;-41
2021/05/03 09:16:22;;;;;;;4.95;4.05;;;13.40;71.50;;;;;;5092862;28;20143;-43
2021/05/03 09:18:48;;;;;;;4.88;4.25;;;13.40;71.50;;;;;;5092708;28;20048;-41
2021/05/03 09:21:21;;;;;;;4.40;3.60;;;13.40;71.50;;;;;;5092544;28;20488;-41
2021/05/03 09:24:07;;;;;;;6.22;4.35;;;13.40;71.70;;;;;;5092210;28;20404;-42
2021/05/03 09:26:35;;;;;;;;;;;13.40;71.80;;;;;;5093043;28;20413;-46
2021/05/03 09:29:25;;;;;;;4.78;3.80;;;13.40;71.80;;;;;;5092029;28;19942;-42
2021/05/03 09:32:22;;;;;;;4.90;3.33;;;13.40;71.80;;;;;;5091230;28;20040;-44
2021/05/03 09:34:51;;;;;;;4.60;3.90;;;13.40;71.80;;;;;;5091989;28;20499;-46
2021/05/03 09:37:29;;;;;;;4.55;3.83;;;13.40;71.80;;;;;;5092686;28;20515;-51
2021/05/03 09:40:05;;;;;;;4.80;3.78;;;13.40;71.90;;;;;;5092391;28;20050;-49
2021/05/03 09:42:49;;;;;;;4.78;4.07;;;13.40;72.00;;;;;;5091934;28;20044;-44
2021/05/03 09:45:23;;;;;;;6.15;3.83;;;13.40;72.00;;;;;;5091916;28;20044;-47
2021/05/03 09:47:51;;;;;;;4.90;3.85;;;13.40;72.00;;;;;;5092267;28;20090;-49
2021/05/03 09:50:22;;;;;;;3.45;3.10;;;13.40;72.20;;;;;;5092438;28;20066;-42
2021/05/03 09:53:07;;;;;;;3.95;3.45;;;13.40;72.20;;;;;;5092046;28;20059;-45
2021/05/03 09:55:34;;;;;;;4.45;3.50;;;13.40;72.40;;;;;;5091998;28;20064;-44
2021/05/03 09:58:12;;;;;;;4.45;3.28;;;13.40;72.40;;;;;;5091860;28;20135;-50
2021/05/03 10:00:40;;;;;;;4.75;3.40;;;13.40;72.50;;;;;;5091958;28;20087;-49
2021/05/03 10:03:30;;;;;;;4.78;3.53;;;13.40;72.50;;;;;;5092205;28;20048;-45
2021/05/03 10:05:56;;;;;;;4.25;3.55;;;13.50;72.70;;;;;;5091809;28;20067;-52
2021/05/03 10:08:22;;;;;;;4.00;3.08;;;13.30;72.60;;;;;;5090823;28;20134;-46
2021/05/03 10:10:51;;;;;;;4.18;3.30;;;13.50;72.80;;;;;;5092166;28;20074;-46
2021/05/03 10:13:18;;;;;;;4.13;3.50;;;13.40;72.80;;;;;;5091943;28;20078;-47
2021/05/03 10:15:45;;;;;;;4.43;3.15;;;13.50;73.70;;;;;;5092008;28;20149;-41
2021/05/03 10:18:15;;;;;;;3.83;3.20;;;13.50;73.10;;;;;;5091739;28;20488;-46
2021/05/03 10:20:41;;;;;;;3.40;2.90;;;13.50;73.20;;;;;;5092000;28;20092;-43
2021/05/03 10:23:07;;;;;;;3.97;2.92;;;13.50;73.20;;;;;;5091805;28;20492;-41
2021/05/03 10:25:33;;;;;;;4.03;3.17;;;13.50;73.20;;;;;;5092007;28;20048;-42
2021/05/03 10:27:59;;;;;;;3.72;2.88;;;13.50;73.30;;;;;;5091489;28;20506;-40
2021/05/03 10:30:26;;;;;;;4.95;3.15;;;13.50;73.30;;;;;;5091407;28;20040;-40
2021/05/03 10:32:59;;;;;;;3.70;2.85;;;13.50;73.40;;;;;;5091054;28;20042;-42
2021/05/03 10:35:28;;;;;;;4.10;3.10;;;13.60;73.50;;;;;;5092062;28;20496;-43
2021/05/03 10:37:56;;;;;;;3.20;2.63;;;13.50;73.40;;;;;;5091414;28;20040;-40
2021/05/03 10:40:21;;;;;;;4.43;2.90;;;13.60;73.50;;;;;;5091919;28;20591;-40
2021/05/03 10:43:02;;;;;;;3.25;2.95;;;13.60;73.40;;;;;;5093119;28;20210;-39
2021/05/03 10:46:07;;;;;;;3.67;2.60;;;13.60;73.40;;;;;;5095178;28;20115;-40
2021/05/03 10:53:55;;;;;;;3.53;2.80;;;13.60;73.20;;;;;;5095204;28;20047;-39
2021/05/03 10:56:39;;;;;;;3.13;2.60;;;13.60;73.20;;;;;;5095467;28;20048;-39
2021/05/03 10:59:12;;;;;;;3.15;2.83;;;13.70;73.30;;;;;;5095350;28;20114;-47
2021/05/03 11:01:56;;;;;;;4.38;2.90;;;13.60;73.20;;;;;;5094363;28;20093;-41
2021/05/03 11:04:28;;;;;;;3.33;2.70;;;13.60;73.20;;;;;;5095624;28;20157;-42
2021/05/03 11:06:57;;;;;;;2.88;2.58;;;13.60;73.10;;;;;;5095862;28;20495;-43
2021/05/03 11:09:27;;;;;;;3.33;2.90;;;13.70;73.20;;;;;;5095846;28;20044;-43
2021/05/03 11:11:57;;;;;;;4.65;3.17;;;13.70;73.20;;;;;;5095296;28;20043;-43
2021/05/03 11:14:24;;;;;;;3.08;2.42;;;13.70;73.20;;;;;;5095585;28;20407;-43
2021/05/03 11:17:06;;;;;;;3.70;2.88;;;13.70;73.20;;;;;;5095493;28;20086;-43
2021/05/03 11:19:45;;;;;;;3.70;2.95;;;13.70;73.20;;;;;;5095537;28;20048;-44
2021/05/03 11:22:20;;;;;;;3.22;2.80;;;13.70;73.20;;;;;;5095289;28;20091;-43
2021/05/03 11:30:16;;;;;;;2.50;2.13;;;13.80;73.30;;;;;;5095561;28;20466;-42
2021/05/03 11:32:42;;;;;;;3.75;2.53;;;13.70;73.20;;;;;;5094390;28;20090;-43
2021/05/03 11:35:21;;;;;;;3.53;2.70;;;13.80;73.20;;;;;;5092434;28;20063;-47
2021/05/03 11:40:46;;;;;;;3.85;2.72;;;13.80;73.30;;;;;;5094319;28;20409;-53
2021/05/03 11:46:26;;;;;;;3.95;2.40;;;13.80;73.30;;;;;;5093371;28;20114;-53
2021/05/03 11:48:56;;;;;;;3.08;2.35;;;13.80;73.20;;;;;;5092891;28;20044;-54
2021/05/03 11:51:23;;;;;;;3.55;2.60;;;13.90;73.30;;;;;;5094378;28;20051;-48
2021/05/03 11:53:49;;;;;;;2.97;2.40;;;13.80;73.20;;;;;;5093155;28;20103;-48
2021/05/03 11:56:27;;;;;;;2.72;2.08;;;13.80;73.20;;;;;;5087534;28;20036;-49
2021/05/03 11:58:57;;;;;;;2.78;2.45;;;13.80;73.20;;;;;;5093384;28;20485;-44
2021/05/03 12:01:25;;;;;;;2.97;2.20;;;13.80;73.10;;;;;;5094008;28;20111;-45
2021/05/03 12:03:57;;;;;;;3.50;2.40;;;13.90;73.20;;;;;;5089680;28;20047;-48
2021/05/03 12:06:49;;;;;;;2.92;2.63;;;13.80;73.10;;;;;;5091155;28;20051;-49
2021/05/03 12:09:15;;;;;;;2.95;2.17;;;13.90;73.00;;;;;;5093636;28;20052;-48
2021/05/03 12:12:00;;;;;;;3.38;2.42;;;13.80;73.00;;;;;;5094575;28;20056;-52
2021/05/03 12:14:42;;;;;;;2.55;2.25;;;13.80;72.90;;;;;;5093435;28;20066;-52
2021/05/03 12:17:23;;;;;;;2.67;2.33;;;13.90;72.90;;;;;;5083353;28;20051;-51
2021/05/03 12:19:55;;;;;;;2.30;2.08;;;13.90;72.90;;;;;;5078603;28;20515;-47
2021/05/03 12:22:21;;;;;;;4.65;2.05;;;13.90;72.80;;;;;;5072920;28;20404;-44
2021/05/03 12:24:48;;;;;;;2.90;2.00;;;13.90;72.70;;;;;;5077237;28;20068;-46
2021/05/03 12:27:14;;;;;;;2.55;1.83;;;13.90;73.40;;;;;;5094419;28;20048;-46
2021/05/03 12:29:43;;;;;;;2.60;2.10;;;13.90;72.60;;;;;;5094178;28;20666;-47
2021/05/03 12:32:12;;;;;;;2.67;2.20;;;13.90;72.60;;;;;;5094207;28;20492;-50
2021/05/03 12:34:49;;;;;;;3.60;2.92;;;14.00;72.60;;;;;;5093516;28;20411;-47
2021/05/03 12:37:16;;;;;;;10.68;6.38;;;13.90;72.40;;;;;;5093396;28;20055;-47
2021/05/03 12:40:06;;;;;;;11.05;6.35;;;13.90;72.10;;;;;;5093941;28;20068;-47
2021/05/03 12:42:52;;;;;;;8.55;5.78;;;13.80;72.30;;;;;;5093747;28;20048;-47
2021/05/03 12:45:39;;;;;;;;;;;13.80;72.50;;;;;;5093046;28;20055;-42
2021/05/03 12:56:42;;;;;;;6.70;5.78;;;13.80;74.00;;;;;;5011195;28;20053;-43
2021/05/03 13:05:00;;;;;;;7.65;5.93;;;13.80;73.90;;;;;;5010008;28;20056;-46
2021/05/03 13:07:52;;;;;;;6.97;5.03;;;13.90;74.20;;;;;;5010093;28;20525;-51
2021/05/03 13:29:40;;;;;;;7.18;4.60;;;13.90;75.30;;;;;;5010348;28;20060;-44
2021/05/03 13:32:08;;;;;;;4.90;4.23;;;13.90;75.30;;;;;;5075045;28;20051;-49
2021/05/03 13:34:34;;;;;;;7.72;4.43;;;13.90;75.40;;;;;;5092641;28;20055;-50
2021/05/03 13:37:00;;;;;;;4.90;4.40;;;13.90;75.50;;;;;;5092119;28;20047;-48
2021/05/03 13:39:26;;;;;;;6.97;4.30;;;14.00;75.60;;;;;;5092499;28;20048;-46
2021/05/03 13:41:52;;;;;;;4.43;4.03;;;14.00;75.70;;;;;;5089497;28;20504;-46
2021/05/03 13:44:18;;;;;;;5.85;4.47;;;13.90;75.80;;;;;;5081872;28;20059;-43
2021/05/03 13:46:47;;;;;;;4.85;4.32;;;13.90;75.90;;;;;;5087928;28;20532;-49
2021/05/03 13:49:14;;;;;;;4.95;3.70;;;13.90;75.90;;;;;;5088128;28;20416;-44
2021/05/03 13:51:42;;;;;;;4.65;3.67;;;13.90;76.00;;;;;;5095952;28;20591;-46
2021/05/03 13:54:09;;;;;;;4.43;3.38;;;13.90;76.10;;;;;;5108270;28;20488;-43
2021/05/03 13:56:35;;;;;;;4.90;3.53;;;14.00;76.10;;;;;;5107874;28;20054;-47
2021/05/03 13:59:00;;;;;;;4.43;3.67;;;13.90;76.10;;;;;;5108235;28;20043;-50
2021/05/03 14:01:26;;;;;;;3.88;3.38;;;13.90;76.20;;;;;;5106186;28;20150;-46
2021/05/03 14:03:52;;;;;;;3.78;3.47;;;14.00;76.20;;;;;;5107856;28;20507;-44